Time;durP1;ratioP1;P1;durP2;ratioP2;P2;SDS_P1;SDS_P2;PMS_P1;PMS_P2;Temp;Humidity;BMP_temperature;BMP_pressure;BME280_temperature;BME280_humidity;BME280_pressure;Samples;Min_cycle;Max_cycle;Signal;HPM_P1;HPM_P2
2022/04/16 00:00:09;;;;;;;1999.90;999.90;;;;;;;;;;5085302;28;20313;-74
2022/04/16 00:02:36;;;;;;;1999.90;999.90;;;;;;;;;;5085194;28;20263;-74
2022/04/16 00:05:05;;;;;;;1999.90;999.90;;;;;;;;;;5084071;28;20242;-74
2022/04/16 00:07:32;;;;;;;1999.90;999.90;;;;;;;;;;5083943;28;20259;-73
2022/04/16 00:10:00;;;;;;;1999.90;999.90;;;;;;;;;;5085499;28;20296;-74
2022/04/16 00:12:28;;;;;;;1999.90;999.90;;;;;;;;;;5079395;28;20664;-75
2022/04/16 00:14:57;;;;;;;1999.90;999.90;;;;;;;;;;5080093;28;20258;-75
2022/04/16 00:17:25;;;;;;;1999.90;999.90;;;;;;;;;;5082062;28;20234;-74
2022/04/16 00:19:52;;;;;;;1999.90;999.90;;;;;;;;;;5076294;28;20338;-74
2022/04/16 00:22:23;;;;;;;1999.90;999.90;;;;;;;;;;5115278;27;20300;-74
2022/04/16 00:24:50;;;;;;;1999.90;999.90;;;;;;;;;;5071426;28;20231;-75
2022/04/16 00:27:18;;;;;;;1999.90;999.90;;;;;;;;;;5077959;28;20255;-73
2022/04/16 00:29:46;;;;;;;1999.90;999.90;;;;;;;;;;5085046;28;20231;-74
2022/04/16 00:32:14;;;;;;;1999.90;999.90;;;;;;;;;;5082123;28;20227;-74
2022/04/16 00:34:42;;;;;;;1999.90;999.90;;;;;;;;;;5085184;27;20281;-74
2022/04/16 00:37:10;;;;;;;1999.90;999.90;;;;;;;;;;5075146;28;21639;-73
2022/04/16 00:39:37;;;;;;;1999.90;999.90;;;;;;;;;;5084479;28;20348;-73
2022/04/16 00:42:05;;;;;;;1999.90;999.90;;;;;;;;;;5081141;28;20726;-74
2022/04/16 00:44:33;;;;;;;1999.90;999.90;;;;;;;;;;5070475;28;20680;-74
2022/04/16 00:47:00;;;;;;;1999.90;999.90;;;;;;;;;;5110550;27;20280;-74
2022/04/16 00:49:29;;;;;;;1999.90;999.90;;;;;;;;;;5086110;28;20259;-74
2022/04/16 00:51:56;;;;;;;1999.90;999.90;;;;;;;;;;5083355;28;20319;-75
2022/04/16 00:54:24;;;;;;;1999.90;999.90;;;;;;;;;;5084280;28;20227;-73
2022/04/16 00:56:52;;;;;;;1999.90;999.90;;;;;;;;;;5055023;28;20243;-74
2022/04/16 00:59:19;;;;;;;1999.90;999.90;;;;;;;;;;5075814;28;20334;-74
2022/04/16 01:01:47;;;;;;;1999.90;999.90;;;;;;;;;;5085070;28;20235;-74
2022/04/16 01:04:15;;;;;;;1999.90;999.90;;;;;;;;;;5087160;28;20323;-73
2022/04/16 01:06:48;;;;;;;1999.90;999.90;;;;;;;;;;5106283;27;20710;-76
2022/04/16 01:09:16;;;;;;;1999.90;999.90;;;;;;;;;;5081080;28;20234;-76
2022/04/16 01:11:44;;;;;;;1999.90;999.90;;;;;;;;;;5099124;27;20247;-75
2022/04/16 01:14:12;;;;;;;1999.90;999.90;;;;;;;;;;5076216;28;20670;-73
2022/04/16 01:16:39;;;;;;;1999.90;999.90;;;;;;;;;;5109297;27;20320;-74
2022/04/16 01:19:09;;;;;;;1999.90;999.90;;;;;;;;;;5058974;28;20284;-74
2022/04/16 01:21:36;;;;;;;1999.90;999.90;;;;;;;;;;5108993;27;20262;-74
2022/04/16 01:24:06;;;;;;;1999.90;999.90;;;;;;;;;;5115854;27;20289;-74
2022/04/16 01:26:34;;;;;;;1999.90;999.90;;;;;;;;;;5077229;28;20748;-73
2022/04/16 01:29:02;;;;;;;1999.90;999.90;;;;;;;;;;5081811;28;20285;-73
2022/04/16 01:31:30;;;;;;;1999.90;999.90;;;;;;;;;;5089501;28;20230;-73
2022/04/16 01:33:58;;;;;;;1999.90;999.90;;;;;;;;;;5083723;28;20235;-73
2022/04/16 01:36:29;;;;;;;1999.90;999.90;;;;;;;;;;5061170;28;20259;-72
2022/04/16 01:38:57;;;;;;;1999.90;999.90;;;;;;;;;;5075565;28;20258;-73
2022/04/16 01:41:27;;;;;;;1999.90;999.90;;;;;;;;;;5076555;28;20251;-74
2022/04/16 01:43:56;;;;;;;1999.90;999.90;;;;;;;;;;5101822;27;20231;-73
2022/04/16 01:46:23;;;;;;;1999.90;999.90;;;;;;;;;;5081702;28;20239;-73
2022/04/16 01:48:53;;;;;;;1999.90;999.90;;;;;;;;;;5097906;28;20261;-74
2022/04/16 01:51:21;;;;;;;1999.90;999.90;;;;;;;;;;5077680;28;20234;-73
2022/04/16 01:53:49;;;;;;;1999.90;999.90;;;;;;;;;;5081053;28;20683;-73
2022/04/16 01:56:17;;;;;;;1999.90;999.90;;;;;;;;;;5076707;28;20238;-75
2022/04/16 01:58:45;;;;;;;1999.90;999.90;;;;;;;;;;5085309;28;20235;-75
2022/04/16 02:01:13;;;;;;;1999.90;999.90;;;;;;;;;;5080364;28;20780;-75
2022/04/16 02:03:40;;;;;;;1999.90;999.90;;;;;;;;;;5078216;28;20236;-74
2022/04/16 02:06:08;;;;;;;1999.90;999.90;;;;;;;;;;5073858;28;20292;-75
2022/04/16 02:08:36;;;;;;;1999.90;999.90;;;;;;;;;;5106001;27;20923;-73
2022/04/16 02:11:03;;;;;;;1999.90;999.90;;;;;;;;;;5094802;27;20843;-73
2022/04/16 02:13:31;;;;;;;1999.90;999.90;;;;;;;;;;5084225;28;20261;-74
2022/04/16 02:16:00;;;;;;;1999.90;999.90;;;;;;;;;;5085973;28;20277;-73
2022/04/16 02:18:28;;;;;;;1999.90;999.90;;;;;;;;;;5085655;28;20226;-74
2022/04/16 02:20:55;;;;;;;1999.90;999.90;;;;;;;;;;5087273;28;20234;-73
2022/04/16 02:23:23;;;;;;;1999.90;999.90;;;;;;;;;;5075912;28;20305;-74
2022/04/16 02:25:53;;;;;;;1999.90;999.90;;;;;;;;;;5083973;28;20231;-74
2022/04/16 02:28:21;;;;;;;1999.90;999.90;;;;;;;;;;5079185;28;20231;-73
2022/04/16 02:30:49;;;;;;;1999.90;999.90;;;;;;;;;;5119443;27;20318;-73
2022/04/16 02:33:18;;;;;;;1999.90;999.90;;;;;;;;;;5066483;28;20329;-74
2022/04/16 02:35:46;;;;;;;1999.90;999.90;;;;;;;;;;5085953;27;20322;-74
2022/04/16 02:38:13;;;;;;;1999.90;999.90;;;;;;;;;;5080557;28;20285;-73
2022/04/16 02:40:41;;;;;;;1999.90;999.90;;;;;;;;;;5085476;28;20231;-76
2022/04/16 02:43:08;;;;;;;1999.90;999.90;;;;;;;;;;5086533;28;20654;-73
2022/04/16 02:48:22;;;;;;;1999.90;999.90;;;;;;;;;;5064563;28;20281;-73
2022/04/16 02:50:53;;;;;;;1999.90;999.90;;;;;;;;;;5080063;28;20773;-73
2022/04/16 02:53:20;;;;;;;1999.90;999.90;;;;;;;;;;5078318;28;20744;-73
2022/04/16 02:55:48;;;;;;;1999.90;999.90;;;;;;;;;;5082191;28;20318;-74
2022/04/16 02:58:15;;;;;;;1999.90;999.90;;;;;;;;;;5080183;28;20820;-74
2022/04/16 03:00:43;;;;;;;1999.90;999.90;;;;;;;;;;5079498;28;20231;-73
2022/04/16 03:03:10;;;;;;;1999.90;999.90;;;;;;;;;;5121545;27;20238;-73
2022/04/16 03:05:39;;;;;;;1999.90;999.90;;;;;;;;;;5082251;27;20254;-73
2022/04/16 03:08:12;;;;;;;1999.90;999.90;;;;;;;;;;5099114;27;20230;-73
2022/04/16 03:10:40;;;;;;;1999.90;999.90;;;;;;;;;;5075488;28;20234;-73
2022/04/16 03:13:08;;;;;;;1999.90;999.90;;;;;;;;;;5086389;28;20729;-73
2022/04/16 03:18:21;;;;;;;1999.90;999.90;;;;;;;;;;5083155;28;20227;-75
2022/04/16 03:20:50;;;;;;;1999.90;999.90;;;;;;;;;;5077623;28;20698;-73
2022/04/16 03:23:18;;;;;;;1999.90;999.90;;;;;;;;;;5105708;27;20807;-73
2022/04/16 03:25:46;;;;;;;1999.90;999.90;;;;;;;;;;5088029;28;20798;-73
2022/04/16 03:28:13;;;;;;;1999.90;999.90;;;;;;;;;;5089113;28;20286;-73
2022/04/16 03:30:41;;;;;;;1999.90;999.90;;;;;;;;;;5078960;28;20254;-75
2022/04/16 03:33:09;;;;;;;1999.90;999.90;;;;;;;;;;5087279;28;20227;-74
2022/04/16 03:35:37;;;;;;;1999.90;999.90;;;;;;;;;;5089551;27;20244;-74
2022/04/16 03:38:06;;;;;;;1999.90;999.90;;;;;;;;;;5079949;28;21137;-74
2022/04/16 03:40:33;;;;;;;1999.90;999.90;;;;;;;;;;5081610;28;20231;-74
2022/04/16 03:43:02;;;;;;;1999.90;999.90;;;;;;;;;;5083079;28;20717;-74
2022/04/16 03:45:30;;;;;;;1999.90;999.90;;;;;;;;;;5075001;28;20979;-74
2022/04/16 03:47:58;;;;;;;1999.90;999.90;;;;;;;;;;5089879;28;20222;-75
2022/04/16 03:50:26;;;;;;;1999.90;999.90;;;;;;;;;;5086043;28;20231;-76
2022/04/16 03:52:55;;;;;;;1999.90;999.90;;;;;;;;;;5084427;28;20331;-76
2022/04/16 04:00:56;;;;;;;1999.90;999.90;;;;;;;;;;5068670;28;20298;-74
2022/04/16 04:03:24;;;;;;;1999.90;999.90;;;;;;;;;;5072203;28;20326;-74
2022/04/16 04:05:54;;;;;;;1999.90;999.90;;;;;;;;;;5109672;27;20242;-77
2022/04/16 04:08:22;;;;;;;1999.90;999.90;;;;;;;;;;5091231;28;20258;-77
2022/04/16 04:10:51;;;;;;;1999.90;999.90;;;;;;;;;;5071764;28;20227;-77
2022/04/16 04:13:18;;;;;;;1999.90;999.90;;;;;;;;;;5074055;28;20322;-77
2022/04/16 04:15:46;;;;;;;1999.90;999.90;;;;;;;;;;5075220;28;20307;-77
2022/04/16 04:18:14;;;;;;;1999.90;999.90;;;;;;;;;;5091540;28;20230;-77
2022/04/16 04:20:41;;;;;;;1999.90;999.90;;;;;;;;;;5079954;28;20740;-78
2022/04/16 04:23:09;;;;;;;1999.90;999.90;;;;;;;;;;5085740;28;20235;-76
2022/04/16 04:25:36;;;;;;;1999.90;999.90;;;;;;;;;;5055626;28;20223;-76
2022/04/16 04:28:05;;;;;;;1999.90;999.90;;;;;;;;;;5089826;28;20338;-77
2022/04/16 04:30:33;;;;;;;1999.90;999.90;;;;;;;;;;5081385;28;20242;-75
2022/04/16 04:33:01;;;;;;;1999.90;999.90;;;;;;;;;;5070632;28;20232;-78
2022/04/16 04:35:28;;;;;;;1999.90;999.90;;;;;;;;;;5096592;28;20288;-77
2022/04/16 04:37:56;;;;;;;1999.90;999.90;;;;;;;;;;5078482;28;20575;-77
2022/04/16 04:40:23;;;;;;;1999.90;999.90;;;;;;;;;;5081490;28;20669;-77
2022/04/16 04:42:51;;;;;;;1999.90;999.90;;;;;;;;;;5081880;28;20235;-74
2022/04/16 04:45:20;;;;;;;1999.90;999.90;;;;;;;;;;5081122;28;20691;-75
2022/04/16 04:47:47;;;;;;;1999.90;999.90;;;;;;;;;;5073774;28;20286;-75
2022/04/16 04:50:15;;;;;;;1999.90;999.90;;;;;;;;;;5063585;28;20229;-74
2022/04/16 04:52:42;;;;;;;1999.90;999.90;;;;;;;;;;5082520;28;20226;-74
2022/04/16 04:55:10;;;;;;;1999.90;999.90;;;;;;;;;;5112849;27;20241;-74
2022/04/16 04:57:38;;;;;;;1999.90;999.90;;;;;;;;;;5100897;27;20263;-73
2022/04/16 05:00:06;;;;;;;1999.90;999.90;;;;;;;;;;5078757;28;20231;-74
2022/04/16 05:02:42;;;;;;;1999.90;999.90;;;;;;;;;;5077037;28;20265;-74
2022/04/16 05:05:10;;;;;;;1999.90;999.90;;;;;;;;;;5113096;27;20249;-74
2022/04/16 05:07:37;;;;;;;1999.90;999.90;;;;;;;;;;5082991;28;20226;-74
2022/04/16 05:10:05;;;;;;;1999.90;999.90;;;;;;;;;;5081878;28;20318;-74
2022/04/16 05:12:33;;;;;;;1999.90;999.90;;;;;;;;;;5083260;28;20771;-74
2022/04/16 05:15:00;;;;;;;1999.90;999.90;;;;;;;;;;5080605;28;20285;-73
2022/04/16 05:17:28;;;;;;;1999.90;999.90;;;;;;;;;;5112311;27;20222;-75
2022/04/16 05:19:57;;;;;;;1999.90;999.90;;;;;;;;;;5075018;28;20238;-74
2022/04/16 05:22:24;;;;;;;1999.90;999.90;;;;;;;;;;5088459;27;20242;-74
2022/04/16 05:24:52;;;;;;;1999.90;999.90;;;;;;;;;;5079312;28;20285;-75
2022/04/16 05:27:19;;;;;;;1999.90;999.90;;;;;;;;;;5080425;28;20227;-75
2022/04/16 05:29:56;;;;;;;1999.90;999.90;;;;;;;;;;5074960;28;20324;-76
2022/04/16 05:32:25;;;;;;;1999.90;999.90;;;;;;;;;;5107253;27;20797;-74
2022/04/16 05:34:54;;;;;;;1999.90;999.90;;;;;;;;;;5076267;28;20310;-76
2022/04/16 05:37:23;;;;;;;1999.90;999.90;;;;;;;;;;5087427;28;20269;-75
2022/04/16 05:39:51;;;;;;;1999.90;999.90;;;;;;;;;;5085541;28;20254;-76
2022/04/16 05:42:19;;;;;;;1999.90;999.90;;;;;;;;;;5078698;28;20313;-75
2022/04/16 05:44:46;;;;;;;1999.90;999.90;;;;;;;;;;5083120;28;20376;-75
2022/04/16 05:47:14;;;;;;;1999.90;999.90;;;;;;;;;;5075214;28;20736;-76
2022/04/16 05:49:41;;;;;;;1999.90;999.90;;;;;;;;;;5083749;28;20270;-76
2022/04/16 05:52:09;;;;;;;1999.90;999.90;;;;;;;;;;5075238;28;20685;-76
2022/04/16 05:54:38;;;;;;;1999.90;999.90;;;;;;;;;;5108404;27;20231;-76
2022/04/16 05:57:06;;;;;;;1999.90;999.90;;;;;;;;;;5081065;28;20222;-75
2022/04/16 05:59:35;;;;;;;1999.90;999.90;;;;;;;;;;5077860;28;20289;-75
2022/04/16 06:02:02;;;;;;;1999.90;999.90;;;;;;;;;;5071992;28;20233;-75
2022/04/16 06:04:30;;;;;;;1999.90;999.90;;;;;;;;;;5079090;27;20263;-75
2022/04/16 06:06:57;;;;;;;1999.90;999.90;;;;;;;;;;5107410;27;20306;-76
2022/04/16 06:09:25;;;;;;;1999.90;999.90;;;;;;;;;;5088627;28;20281;-75
2022/04/16 06:11:54;;;;;;;1999.90;999.90;;;;;;;;;;5074350;28;20318;-77
2022/04/16 06:14:21;;;;;;;1999.90;999.90;;;;;;;;;;5084611;28;20312;-76
2022/04/16 06:16:49;;;;;;;1999.90;999.90;;;;;;;;;;5091347;28;20616;-75
2022/04/16 06:19:16;;;;;;;1999.90;999.90;;;;;;;;;;5084508;28;20219;-75
2022/04/16 06:21:44;;;;;;;1999.90;999.90;;;;;;;;;;5080441;28;20230;-77
2022/04/16 06:24:12;;;;;;;1999.90;999.90;;;;;;;;;;5088657;28;20335;-75
2022/04/16 06:26:41;;;;;;;1999.90;999.90;;;;;;;;;;5086746;28;20702;-75
2022/04/16 06:29:09;;;;;;;1999.90;999.90;;;;;;;;;;5070632;28;20224;-77
2022/04/16 06:31:37;;;;;;;1999.90;999.90;;;;;;;;;;5080077;27;20722;-76
2022/04/16 06:34:05;;;;;;;1999.90;999.90;;;;;;;;;;5073610;28;20231;-76
2022/04/16 06:36:32;;;;;;;1999.90;999.90;;;;;;;;;;5074507;27;20365;-75
2022/04/16 06:39:00;;;;;;;1999.90;999.90;;;;;;;;;;5074495;28;20235;-73
2022/04/16 06:41:32;;;;;;;1999.90;999.90;;;;;;;;;;5068406;28;20318;-74
2022/04/16 06:44:00;;;;;;;1999.90;999.90;;;;;;;;;;5064108;28;20988;-73
2022/04/16 06:46:30;;;;;;;1999.90;999.90;;;;;;;;;;5110411;27;20752;-73
2022/04/16 06:48:58;;;;;;;1999.90;999.90;;;;;;;;;;5077785;28;20307;-73
2022/04/16 06:51:25;;;;;;;1999.90;999.90;;;;;;;;;;5114824;27;21507;-73
2022/04/16 06:53:53;;;;;;;1999.90;999.90;;;;;;;;;;5064462;28;20286;-73
2022/04/16 06:56:20;;;;;;;1999.90;999.90;;;;;;;;;;5075561;28;20306;-73
2022/04/16 06:58:52;;;;;;;1999.90;999.90;;;;;;;;;;5082516;28;20886;-71
2022/04/16 07:01:20;;;;;;;1999.90;999.90;;;;;;;;;;5084508;28;20227;-73
2022/04/16 07:03:49;;;;;;;1999.90;999.90;;;;;;;;;;5080127;28;20310;-73
2022/04/16 07:06:16;;;;;;;1999.90;999.90;;;;;;;;;;5066499;28;20270;-73
2022/04/16 07:08:44;;;;;;;1999.90;999.90;;;;;;;;;;5071830;28;20234;-73
2022/04/16 07:11:12;;;;;;;1999.90;999.90;;;;;;;;;;5108080;27;20815;-73
2022/04/16 07:13:39;;;;;;;1999.90;999.90;;;;;;;;;;5077884;28;20227;-73
2022/04/16 07:16:07;;;;;;;1999.90;999.90;;;;;;;;;;5076658;28;20289;-73
2022/04/16 07:18:34;;;;;;;1999.90;999.90;;;;;;;;;;5077290;28;20257;-73
2022/04/16 07:21:03;;;;;;;1999.90;999.90;;;;;;;;;;5092779;27;20800;-74
2022/04/16 07:23:31;;;;;;;1999.90;999.90;;;;;;;;;;5106830;27;20235;-73
2022/04/16 07:25:58;;;;;;;1999.90;999.90;;;;;;;;;;5079407;28;20247;-75
2022/04/16 07:28:26;;;;;;;1999.90;999.90;;;;;;;;;;5083574;28;20316;-74
2022/04/16 07:30:53;;;;;;;1999.90;999.90;;;;;;;;;;5079567;28;20231;-74
2022/04/16 07:33:21;;;;;;;1999.90;999.90;;;;;;;;;;5087289;28;20235;-74
2022/04/16 07:35:49;;;;;;;1999.90;999.90;;;;;;;;;;5074597;28;20235;-75
2022/04/16 07:38:18;;;;;;;1999.90;999.90;;;;;;;;;;5088789;27;20285;-76
2022/04/16 07:40:45;;;;;;;1999.90;999.90;;;;;;;;;;5082594;28;20297;-77
2022/04/16 07:43:14;;;;;;;1999.90;999.90;;;;;;;;;;5083230;28;20632;-76
2022/04/16 07:45:42;;;;;;;1999.90;999.90;;;;;;;;;;5071249;28;20243;-78
2022/04/16 07:48:10;;;;;;;1999.90;999.90;;;;;;;;;;5076988;28;20227;-77
2022/04/16 07:50:37;;;;;;;1999.90;999.90;;;;;;;;;;5107826;27;20718;-76
2022/04/16 07:53:06;;;;;;;1999.90;999.90;;;;;;;;;;5076748;28;20576;-77
2022/04/16 07:55:35;;;;;;;1999.90;999.90;;;;;;;;;;5076462;28;20306;-78
2022/04/16 07:58:03;;;;;;;1999.90;999.90;;;;;;;;;;5081115;28;20293;-77
2022/04/16 08:00:30;;;;;;;1999.90;999.90;;;;;;;;;;5080221;28;20231;-76
2022/04/16 08:02:58;;;;;;;1999.90;999.90;;;;;;;;;;5085214;28;20230;-75
2022/04/16 08:05:26;;;;;;;1999.90;999.90;;;;;;;;;;5081829;28;20270;-75
2022/04/16 08:07:55;;;;;;;1999.90;999.90;;;;;;;;;;5072262;28;20228;-75
2022/04/16 08:10:23;;;;;;;1999.90;999.90;;;;;;;;;;5071557;28;20235;-76
2022/04/16 08:12:52;;;;;;;1999.90;999.90;;;;;;;;;;5075174;28;20231;-76
2022/04/16 08:15:19;;;;;;;1999.90;999.90;;;;;;;;;;5078020;28;20239;-76
2022/04/16 08:17:47;;;;;;;1999.90;999.90;;;;;;;;;;5078763;28;20248;-75
2022/04/16 08:20:14;;;;;;;1999.90;999.90;;;;;;;;;;5106546;27;20322;-75
2022/04/16 08:22:46;;;;;;;1999.90;999.90;;;;;;;;;;5081440;28;20266;-75
2022/04/16 08:28:01;;;;;;;1999.90;999.90;;;;;;;;;;5080153;28;20228;-75
2022/04/16 08:30:29;;;;;;;1999.90;999.90;;;;;;;;;;5078119;28;20715;-76
2022/04/16 08:32:56;;;;;;;1999.90;999.90;;;;;;;;;;5072388;28;20239;-76
2022/04/16 08:35:24;;;;;;;1999.90;999.90;;;;;;;;;;5080454;28;20676;-75
2022/04/16 08:37:52;;;;;;;1999.90;999.90;;;;;;;;;;5082103;28;20235;-75
2022/04/16 08:40:21;;;;;;;1999.90;999.90;;;;;;;;;;5080994;28;20218;-75
2022/04/16 08:42:49;;;;;;;1999.90;999.90;;;;;;;;;;5086971;28;20680;-75
2022/04/16 08:45:18;;;;;;;1999.90;999.90;;;;;;;;;;5080265;28;20236;-74
2022/04/16 08:47:46;;;;;;;1999.90;999.90;;;;;;;;;;5082775;28;20227;-79
2022/04/16 08:50:14;;;;;;;1999.90;999.90;;;;;;;;;;5079359;28;20697;-74
2022/04/16 08:52:42;;;;;;;1999.90;999.90;;;;;;;;;;5084069;28;20666;-75
2022/04/16 08:55:10;;;;;;;1999.90;999.90;;;;;;;;;;5071101;28;22490;-75
2022/04/16 08:57:39;;;;;;;1999.90;999.90;;;;;;;;;;5075734;28;20289;-75
2022/04/16 09:00:08;;;;;;;1999.90;999.90;;;;;;;;;;5081952;27;20236;-76
2022/04/16 09:02:37;;;;;;;1999.90;999.90;;;;;;;;;;5074307;28;20321;-74
2022/04/16 09:05:05;;;;;;;1999.90;999.90;;;;;;;;;;5070439;28;20235;-75
2022/04/16 09:07:43;;;;;;;1999.90;999.90;;;;;;;;;;5066154;28;20243;-75
2022/04/16 09:10:11;;;;;;;1999.90;999.90;;;;;;;;;;5103574;27;20306;-73
2022/04/16 09:12:40;;;;;;;1999.90;999.90;;;;;;;;;;5077867;27;20803;-77
2022/04/16 09:15:08;;;;;;;1999.90;999.90;;;;;;;;;;5070913;28;20301;-75
2022/04/16 09:17:37;;;;;;;1999.90;999.90;;;;;;;;;;5082032;28;20228;-75
2022/04/16 09:20:05;;;;;;;1999.90;999.90;;;;;;;;;;5075949;28;20366;-74
2022/04/16 09:22:33;;;;;;;1999.90;999.90;;;;;;;;;;5079616;28;20233;-74
2022/04/16 09:25:00;;;;;;;1999.90;999.90;;;;;;;;;;5076543;28;20231;-77
2022/04/16 09:27:28;;;;;;;1999.90;999.90;;;;;;;;;;5079264;28;20736;-78
2022/04/16 09:29:56;;;;;;;1999.90;999.90;;;;;;;;;;5078431;28;20264;-77
2022/04/16 09:32:24;;;;;;;1999.90;999.90;;;;;;;;;;5073256;28;20236;-76
2022/04/16 09:34:56;;;;;;;1999.90;999.90;;;;;;;;;;5072319;28;20269;-75
2022/04/16 09:37:24;;;;;;;1999.90;999.90;;;;;;;;;;5077389;28;20234;-75
2022/04/16 09:39:52;;;;;;;1999.90;999.90;;;;;;;;;;5109576;27;21002;-73
2022/04/16 09:42:26;;;;;;;1999.90;999.90;;;;;;;;;;5109095;27;20231;-75
2022/04/16 09:44:54;;;;;;;1999.90;999.90;;;;;;;;;;5095790;27;20301;-71
2022/04/16 09:47:24;;;;;;;1999.90;999.90;;;;;;;;;;5071553;28;20652;-71
2022/04/16 09:49:53;;;;;;;1999.90;999.90;;;;;;;;;;5076054;28;20232;-75
2022/04/16 09:52:23;;;;;;;1999.90;999.90;;;;;;;;;;5099147;27;20740;-76
2022/04/16 09:54:51;;;;;;;1999.90;999.90;;;;;;;;;;5075559;28;20254;-76
2022/04/16 09:57:20;;;;;;;1999.90;999.90;;;;;;;;;;5076759;28;21394;-77
2022/04/16 09:59:51;;;;;;;1999.90;999.90;;;;;;;;;;5075935;28;20626;-76
2022/04/16 10:02:19;;;;;;;1999.90;999.90;;;;;;;;;;5081384;28;20227;-74
2022/04/16 10:04:47;;;;;;;1999.90;999.90;;;;;;;;;;5056359;28;21103;-74
2022/04/16 10:07:18;;;;;;;1999.90;999.90;;;;;;;;;;5056127;28;20239;-74
2022/04/16 10:09:53;;;;;;;1999.90;999.90;;;;;;;;;;5080213;28;20357;-71
2022/04/16 10:15:08;;;;;;;1999.90;999.90;;;;;;;;;;5077825;28;20340;-73
2022/04/16 10:17:39;;;;;;;1999.90;999.90;;;;;;;;;;5080599;28;20269;-73
2022/04/16 10:20:09;;;;;;;1999.90;999.90;;;;;;;;;;5085842;28;20227;-70
2022/04/16 10:22:37;;;;;;;1999.90;999.90;;;;;;;;;;5079229;28;20385;-70
2022/04/16 10:25:07;;;;;;;1999.90;999.90;;;;;;;;;;5072032;28;20904;-70
2022/04/16 10:27:39;;;;;;;1999.90;999.90;;;;;;;;;;5074152;28;21368;-70
2022/04/16 10:30:10;;;;;;;1999.90;999.90;;;;;;;;;;5084553;28;20330;-71
2022/04/16 10:32:39;;;;;;;1999.90;999.90;;;;;;;;;;5083273;27;20638;-74
2022/04/16 10:35:07;;;;;;;1999.90;999.90;;;;;;;;;;5080625;28;20297;-75
2022/04/16 10:37:38;;;;;;;1999.90;999.90;;;;;;;;;;5057454;28;20816;-76
2022/04/16 10:40:17;;;;;;;1999.90;999.90;;;;;;;;;;5082477;28;20248;-77
2022/04/16 10:42:47;;;;;;;1999.90;999.90;;;;;;;;;;5109010;27;20258;-77
2022/04/16 10:45:20;;;;;;;1999.90;999.90;;;;;;;;;;5081642;28;20242;-77
2022/04/16 10:47:49;;;;;;;1999.90;999.90;;;;;;;;;;5080932;28;20983;-77
2022/04/16 10:50:18;;;;;;;1999.90;999.90;;;;;;;;;;5076811;28;20327;-77
2022/04/16 10:52:52;;;;;;;1999.90;999.90;;;;;;;;;;5082081;28;20261;-77
2022/04/16 10:55:25;;;;;;;1999.90;999.90;;;;;;;;;;5096024;27;20234;-78
2022/04/16 10:57:56;;;;;;;1999.90;999.90;;;;;;;;;;5083102;28;20698;-78
2022/04/16 11:00:35;;;;;;;1999.90;999.90;;;;;;;;;;5082910;28;20227;-78
2022/04/16 11:03:08;;;;;;;1999.90;999.90;;;;;;;;;;5110374;27;21004;-78
2022/04/16 11:05:36;;;;;;;1999.90;999.90;;;;;;;;;;5076408;28;20235;-77
2022/04/16 11:08:05;;;;;;;1999.90;999.90;;;;;;;;;;5084765;27;20309;-78
2022/04/16 11:10:34;;;;;;;1999.90;999.90;;;;;;;;;;5098453;27;20231;-77
2022/04/16 11:13:02;;;;;;;1999.90;999.90;;;;;;;;;;5099724;27;20289;-76
2022/04/16 11:15:30;;;;;;;1999.90;999.90;;;;;;;;;;5088107;28;20674;-77
2022/04/16 11:17:58;;;;;;;1999.90;999.90;;;;;;;;;;5086810;28;20826;-77
2022/04/16 11:20:27;;;;;;;1999.90;999.90;;;;;;;;;;5087039;28;20700;-77
2022/04/16 11:22:54;;;;;;;1999.90;999.90;;;;;;;;;;5079054;28;20274;-77
2022/04/16 11:25:23;;;;;;;1999.90;999.90;;;;;;;;;;5089673;28;20302;-77
2022/04/16 11:36:12;;;;;;;1999.90;999.90;;;;;;;;;;5080413;28;20228;-78
2022/04/16 11:38:40;;;;;;;1999.90;999.90;;;;;;;;;;5084792;28;20231;-78
2022/04/16 11:41:08;;;;;;;1999.90;999.90;;;;;;;;;;5096508;28;20817;-78
2022/04/16 11:43:45;;;;;;;1999.90;999.90;;;;;;;;;;5082696;28;20322;-77
2022/04/16 11:46:14;;;;;;;1999.90;999.90;;;;;;;;;;5085374;28;21507;-76
2022/04/16 11:48:45;;;;;;;1999.90;999.90;;;;;;;;;;5079488;28;20294;-76
2022/04/16 11:51:13;;;;;;;1999.90;999.90;;;;;;;;;;5069668;28;20309;-79
2022/04/16 11:53:44;;;;;;;1999.90;999.90;;;;;;;;;;5073334;28;20235;-78
2022/04/16 11:56:12;;;;;;;1999.90;999.90;;;;;;;;;;5090859;28;20286;-74
2022/04/16 11:58:41;;;;;;;1999.90;999.90;;;;;;;;;;5092510;28;20227;-78
2022/04/16 12:01:08;;;;;;;1999.90;999.90;;;;;;;;;;5118361;27;20244;-76
2022/04/16 12:03:37;;;;;;;1999.90;999.90;;;;;;;;;;5059932;28;20267;-75
2022/04/16 12:06:08;;;;;;;1999.90;999.90;;;;;;;;;;5079167;28;20548;-74
2022/04/16 12:08:35;;;;;;;1999.90;999.90;;;;;;;;;;5086548;28;20249;-76
2022/04/16 12:11:03;;;;;;;1999.90;999.90;;;;;;;;;;5120454;27;20773;-75
2022/04/16 12:13:34;;;;;;;1999.90;999.90;;;;;;;;;;5087424;28;20234;-75
2022/04/16 12:16:05;;;;;;;1999.90;999.90;;;;;;;;;;5099015;27;20322;-75
2022/04/16 12:18:37;;;;;;;1999.90;999.90;;;;;;;;;;5082258;28;20284;-74
2022/04/16 12:21:06;;;;;;;1999.90;999.90;;;;;;;;;;5084810;28;20317;-76
2022/04/16 12:23:33;;;;;;;1999.90;999.90;;;;;;;;;;5090297;28;20235;-78
2022/04/16 12:26:05;;;;;;;1999.90;999.90;;;;;;;;;;5074982;28;20693;-73
2022/04/16 12:28:33;;;;;;;1999.90;999.90;;;;;;;;;;5075917;28;20289;-74
2022/04/16 12:31:00;;;;;;;1999.90;999.90;;;;;;;;;;5074363;28;20366;-74
2022/04/16 12:33:29;;;;;;;1999.90;999.90;;;;;;;;;;5080408;28;20261;-72
2022/04/16 12:35:58;;;;;;;1999.90;999.90;;;;;;;;;;5080848;28;20231;-73
2022/04/16 12:38:26;;;;;;;1999.90;999.90;;;;;;;;;;5075214;28;20251;-72
2022/04/16 12:41:04;;;;;;;1999.90;999.90;;;;;;;;;;5084146;28;20734;-71
2022/04/16 12:43:32;;;;;;;1999.90;999.90;;;;;;;;;;5076595;28;20750;-71
2022/04/16 12:46:00;;;;;;;1999.90;999.90;;;;;;;;;;5084285;28;20231;-71
2022/04/16 12:48:29;;;;;;;1999.90;999.90;;;;;;;;;;5068462;28;21202;-72
2022/04/16 12:50:57;;;;;;;1999.90;999.90;;;;;;;;;;5081261;28;20779;-72
2022/04/16 12:53:25;;;;;;;1999.90;999.90;;;;;;;;;;5118389;27;20234;-71
2022/04/16 12:55:52;;;;;;;1999.90;999.90;;;;;;;;;;5083917;28;20231;-71
2022/04/16 12:58:20;;;;;;;1999.90;999.90;;;;;;;;;;5082674;28;20318;-71
2022/04/16 13:00:48;;;;;;;1999.90;999.90;;;;;;;;;;5080184;28;20285;-71
2022/04/16 13:03:16;;;;;;;1999.90;999.90;;;;;;;;;;5104062;27;20276;-70
2022/04/16 13:05:45;;;;;;;1999.90;999.90;;;;;;;;;;5084078;28;20547;-70
2022/04/16 13:08:13;;;;;;;1999.90;999.90;;;;;;;;;;5081737;28;20224;-71
2022/04/16 13:10:41;;;;;;;1999.90;999.90;;;;;;;;;;5089564;28;20227;-69
2022/04/16 13:13:08;;;;;;;1999.90;999.90;;;;;;;;;;5084244;28;20737;-70
2022/04/16 13:15:36;;;;;;;1999.90;999.90;;;;;;;;;;5059064;28;20212;-70
2022/04/16 13:18:05;;;;;;;1999.90;999.90;;;;;;;;;;5086914;28;20224;-73
2022/04/16 13:20:32;;;;;;;1999.90;999.90;;;;;;;;;;5080913;28;20219;-72
2022/04/16 13:23:01;;;;;;;1999.90;999.90;;;;;;;;;;5089065;28;20226;-71
2022/04/16 13:25:32;;;;;;;1999.90;999.90;;;;;;;;;;5066704;28;20286;-70
2022/04/16 13:28:00;;;;;;;1999.90;999.90;;;;;;;;;;5085677;28;20262;-71
2022/04/16 13:30:27;;;;;;;1999.90;999.90;;;;;;;;;;5089489;28;20289;-70
2022/04/16 13:32:55;;;;;;;1999.90;999.90;;;;;;;;;;5087254;28;20741;-70
2022/04/16 13:35:22;;;;;;;1999.90;999.90;;;;;;;;;;5086146;28;20316;-70
2022/04/16 13:37:50;;;;;;;1999.90;999.90;;;;;;;;;;5075012;28;20263;-72
2022/04/16 13:43:04;;;;;;;1999.90;999.90;;;;;;;;;;5079557;28;20278;-70
2022/04/16 13:45:32;;;;;;;1999.90;999.90;;;;;;;;;;5089030;28;20258;-70
2022/04/16 13:47:59;;;;;;;1999.90;999.90;;;;;;;;;;5082555;28;20224;-70
2022/04/16 13:50:27;;;;;;;1999.90;999.90;;;;;;;;;;5087521;28;20235;-70
2022/04/16 13:52:54;;;;;;;1999.90;999.90;;;;;;;;;;5085118;28;20254;-71
2022/04/16 13:55:23;;;;;;;1999.90;999.90;;;;;;;;;;5086266;28;20314;-69
2022/04/16 13:57:51;;;;;;;1999.90;999.90;;;;;;;;;;5087929;28;20227;-70
2022/04/16 14:00:18;;;;;;;1999.90;999.90;;;;;;;;;;5120442;27;20788;-70
2022/04/16 14:02:46;;;;;;;1999.90;999.90;;;;;;;;;;5083171;28;20289;-71
2022/04/16 14:07:59;;;;;;;1999.90;999.90;;;;;;;;;;5086169;28;20227;-72
2022/04/16 14:10:28;;;;;;;1999.90;999.90;;;;;;;;;;5085366;28;20277;-72
2022/04/16 14:12:56;;;;;;;1999.90;999.90;;;;;;;;;;5083625;28;20776;-71
2022/04/16 14:15:24;;;;;;;1999.90;999.90;;;;;;;;;;5081751;28;20235;-72
2022/04/16 14:17:51;;;;;;;1999.90;999.90;;;;;;;;;;5081245;28;20269;-72